sensor_id;sensor_type;location;lat;lon;timestamp;pressure;altitude;pressure_sealevel;temperature;humidity
76605;BME280;65496;50.978;16.998;2022-12-17T00:01:18;100303.78;;;20.33;54.66
76605;BME280;65496;50.978;16.998;2022-12-17T00:04:02;100295.53;;;20.33;54.19
76605;BME280;65496;50.978;16.998;2022-12-17T00:06:47;100301.47;;;20.35;54.73
76605;BME280;65496;50.978;16.998;2022-12-17T00:09:32;100301.84;;;20.34;54.74
76605;BME280;65496;50.978;16.998;2022-12-17T00:12:16;100300.72;;;20.35;55.05
76605;BME280;65496;50.978;16.998;2022-12-17T00:15:01;100301.84;;;20.34;54.51
76605;BME280;65496;50.978;16.998;2022-12-17T00:17:45;100305.03;;;20.36;54.72
76605;BME280;65496;50.978;16.998;2022-12-17T00:20:30;100310.91;;;20.34;54.72
76605;BME280;65496;50.978;16.998;2022-12-17T00:23:15;100321.53;;;20.36;54.87
76605;BME280;65496;50.978;16.998;2022-12-17T00:25:59;100320.41;;;20.37;54.60
76605;BME280;65496;50.978;16.998;2022-12-17T00:28:44;100319.59;;;20.36;54.41
76605;BME280;65496;50.978;16.998;2022-12-17T00:31:29;100316.94;;;20.40;54.63
76605;BME280;65496;50.978;16.998;2022-12-17T00:34:13;100322.44;;;20.40;54.46
76605;BME280;65496;50.978;16.998;2022-12-17T00:36:58;100320.84;;;20.39;54.40
76605;BME280;65496;50.978;16.998;2022-12-17T00:39:43;100335.38;;;20.39;54.57
76605;BME280;65496;50.978;16.998;2022-12-17T00:42:27;100348.69;;;20.37;54.73
76605;BME280;65496;50.978;16.998;2022-12-17T00:45:12;100345.25;;;20.40;54.69
76605;BME280;65496;50.978;16.998;2022-12-17T00:47:56;100339.75;;;20.40;54.82
76605;BME280;65496;50.978;16.998;2022-12-17T00:50:41;100339.75;;;20.40;54.76
76605;BME280;65496;50.978;16.998;2022-12-17T00:53:26;100338.94;;;20.40;54.75
76605;BME280;65496;50.978;16.998;2022-12-17T00:56:10;100351.56;;;20.41;54.73
76605;BME280;65496;50.978;16.998;2022-12-17T00:58:55;100344.81;;;20.38;54.91
76605;BME280;65496;50.978;16.998;2022-12-17T01:01:40;100343.31;;;20.41;54.60
76605;BME280;65496;50.978;16.998;2022-12-17T01:04:24;100351.56;;;20.41;54.79
76605;BME280;65496;50.978;16.998;2022-12-17T01:07:09;100341.38;;;20.41;54.86
76605;BME280;65496;50.978;16.998;2022-12-17T01:09:53;100345.25;;;20.40;54.77
76605;BME280;65496;50.978;16.998;2022-12-17T01:12:38;100352.69;;;20.40;55.23
76605;BME280;65496;50.978;16.998;2022-12-17T01:15:23;100353.06;;;20.38;54.68
76605;BME280;65496;50.978;16.998;2022-12-17T01:18:07;100358.19;;;20.40;54.82
76605;BME280;65496;50.978;16.998;2022-12-17T01:20:55;100349.94;;;20.40;55.09
76605;BME280;65496;50.978;16.998;2022-12-17T01:23:40;100350.75;;;20.40;55.10
76605;BME280;65496;50.978;16.998;2022-12-17T01:26:25;100361.75;;;20.40;55.03
76605;BME280;65496;50.978;16.998;2022-12-17T01:29:09;100370.00;;;20.40;55.61
76605;BME280;65496;50.978;16.998;2022-12-17T01:31:54;100367.25;;;20.40;55.67
76605;BME280;65496;50.978;16.998;2022-12-17T01:34:38;100367.94;;;20.37;55.92
76605;BME280;65496;50.978;16.998;2022-12-17T01:37:23;100369.56;;;20.38;55.89
76605;BME280;65496;50.978;16.998;2022-12-17T01:40:08;100364.84;;;20.39;55.86
76605;BME280;65496;50.978;16.998;2022-12-17T01:42:54;100366.44;;;20.40;55.57
76605;BME280;65496;50.978;16.998;2022-12-17T01:45:43;100373.09;;;20.39;55.61
76605;BME280;65496;50.978;16.998;2022-12-17T01:48:41;100377.44;;;20.40;56.15
76605;BME280;65496;50.978;16.998;2022-12-17T01:51:28;100378.25;;;20.40;55.82
76605;BME280;65496;50.978;16.998;2022-12-17T01:54:14;100382.63;;;20.41;56.34
76605;BME280;65496;50.978;16.998;2022-12-17T01:56:59;100377.00;;;20.38;55.73
76605;BME280;65496;50.978;16.998;2022-12-17T02:02:30;100389.72;;;20.42;55.56
76605;BME280;65496;50.978;16.998;2022-12-17T02:05:15;100391.31;;;20.43;55.70
76605;BME280;65496;50.978;16.998;2022-12-17T02:14:33;100389.72;;;20.42;56.03
76605;BME280;65496;50.978;16.998;2022-12-17T02:17:23;100387.75;;;20.43;56.31
76605;BME280;65496;50.978;16.998;2022-12-17T02:20:29;100396.81;;;20.43;55.63
76605;BME280;65496;50.978;16.998;2022-12-17T02:26:47;100388.56;;;20.43;56.08
76605;BME280;65496;50.978;16.998;2022-12-17T02:29:34;100396.81;;;20.43;56.38
76605;BME280;65496;50.978;16.998;2022-12-17T02:32:22;100400.38;;;20.44;55.97
76605;BME280;65496;50.978;16.998;2022-12-17T02:35:21;100401.19;;;20.44;56.38
76605;BME280;65496;50.978;16.998;2022-12-17T02:41:02;100400.38;;;20.44;56.00
76605;BME280;65496;50.978;16.998;2022-12-17T02:43:48;100413.78;;;20.46;55.79
76605;BME280;65496;50.978;16.998;2022-12-17T02:46:33;100411.03;;;20.46;56.01
76605;BME280;65496;50.978;16.998;2022-12-17T02:49:18;100415.72;;;20.45;56.11
76605;BME280;65496;50.978;16.998;2022-12-17T02:52:03;100419.28;;;20.46;56.12
76605;BME280;65496;50.978;16.998;2022-12-17T02:54:47;100424.78;;;20.46;55.95
76605;BME280;65496;50.978;16.998;2022-12-17T02:57:32;100420.91;;;20.47;56.21
76605;BME280;65496;50.978;16.998;2022-12-17T03:00:17;100417.69;;;20.44;55.59
76605;BME280;65496;50.978;16.998;2022-12-17T03:03:01;100424.44;;;20.47;56.13
76605;BME280;65496;50.978;16.998;2022-12-17T03:05:46;100421.69;;;20.47;55.92
76605;BME280;65496;50.978;16.998;2022-12-17T03:08:30;100425.94;;;20.44;56.10
76605;BME280;65496;50.978;16.998;2022-12-17T03:11:15;100431.53;;;20.48;56.31
76605;BME280;65496;50.978;16.998;2022-12-17T03:13:59;100419.41;;;20.49;55.77
76605;BME280;65496;50.978;16.998;2022-12-17T03:16:44;100413.91;;;20.49;55.16
76605;BME280;65496;50.978;16.998;2022-12-17T03:19:28;100413.91;;;20.49;55.72
76605;BME280;65496;50.978;16.998;2022-12-17T03:22:13;100416.28;;;20.51;55.45
76605;BME280;65496;50.978;16.998;2022-12-17T03:25:14;100415.03;;;20.48;55.41
76605;BME280;65496;50.978;16.998;2022-12-17T03:28:04;100407.47;;;20.45;55.86
76605;BME280;65496;50.978;16.998;2022-12-17T03:30:50;100416.97;;;20.48;55.63
76605;BME280;65496;50.978;16.998;2022-12-17T03:33:34;100422.47;;;20.48;56.14
76605;BME280;65496;50.978;16.998;2022-12-17T03:36:19;100421.56;;;20.43;55.90
76605;BME280;65496;50.978;16.998;2022-12-17T03:39:03;100431.91;;;20.47;56.11
76605;BME280;65496;50.978;16.998;2022-12-17T03:41:49;100435.44;;;20.47;56.22
76605;BME280;65496;50.978;16.998;2022-12-17T03:44:33;100436.22;;;20.48;55.97
76605;BME280;65496;50.978;16.998;2022-12-17T03:47:18;100447.59;;;20.46;56.30
76605;BME280;65496;50.978;16.998;2022-12-17T03:50:03;100452.28;;;20.46;56.03
76605;BME280;65496;50.978;16.998;2022-12-17T03:52:48;100457.78;;;20.46;56.17
76605;BME280;65496;50.978;16.998;2022-12-17T03:55:32;100452.97;;;20.42;56.62
76605;BME280;65496;50.978;16.998;2022-12-17T03:58:17;100466.03;;;20.46;56.45
76605;BME280;65496;50.978;16.998;2022-12-17T04:01:02;100470.75;;;20.45;56.51
76605;BME280;65496;50.978;16.998;2022-12-17T04:03:46;100475.44;;;20.44;56.30
76605;BME280;65496;50.978;16.998;2022-12-17T04:06:31;100486.44;;;20.44;56.51
76605;BME280;65496;50.978;16.998;2022-12-17T04:09:15;100472.69;;;20.44;56.96
76605;BME280;65496;50.978;16.998;2022-12-17T04:12:00;100471.44;;;20.42;57.23
76605;BME280;65496;50.978;16.998;2022-12-17T04:14:44;100489.19;;;20.44;56.62
76605;BME280;65496;50.978;16.998;2022-12-17T04:17:29;100491.94;;;20.44;56.81
76605;BME280;65496;50.978;16.998;2022-12-17T04:20:13;100495.50;;;20.45;57.18
76605;BME280;65496;50.978;16.998;2022-12-17T04:22:58;100491.59;;;20.46;56.91
76605;BME280;65496;50.978;16.998;2022-12-17T04:25:42;100503.41;;;20.47;56.63
76605;BME280;65496;50.978;16.998;2022-12-17T04:28:27;100499.03;;;20.46;57.09
76605;BME280;65496;50.978;16.998;2022-12-17T04:31:11;100497.09;;;20.46;57.13
76605;BME280;65496;50.978;16.998;2022-12-17T04:33:56;100508.91;;;20.47;57.37
76605;BME280;65496;50.978;16.998;2022-12-17T04:36:41;100515.19;;;20.47;56.97
76605;BME280;65496;50.978;16.998;2022-12-17T04:39:25;100515.19;;;20.47;56.74
76605;BME280;65496;50.978;16.998;2022-12-17T04:42:10;100514.06;;;20.48;56.76
76605;BME280;65496;50.978;16.998;2022-12-17T04:44:54;100517.94;;;20.47;57.20
76605;BME280;65496;50.978;16.998;2022-12-17T04:47:39;100517.59;;;20.49;57.05
76605;BME280;65496;50.978;16.998;2022-12-17T04:50:23;100521.50;;;20.48;56.75
76605;BME280;65496;50.978;16.998;2022-12-17T04:53:19;100513.25;;;20.48;57.05
76605;BME280;65496;50.978;16.998;2022-12-17T04:56:03;100521.97;;;20.50;57.48
76605;BME280;65496;50.978;16.998;2022-12-17T04:58:48;100526.66;;;20.49;56.81
76605;BME280;65496;50.978;16.998;2022-12-17T05:01:33;100531.81;;;20.51;57.15
76605;BME280;65496;50.978;16.998;2022-12-17T05:04:17;100538.13;;;20.51;57.47
76605;BME280;65496;50.978;16.998;2022-12-17T05:07:02;100537.31;;;20.51;57.25
76605;BME280;65496;50.978;16.998;2022-12-17T05:09:46;100540.88;;;20.51;57.33
76605;BME280;65496;50.978;16.998;2022-12-17T05:12:31;100537.66;;;20.49;57.51
76605;BME280;65496;50.978;16.998;2022-12-17T05:15:16;100535.38;;;20.51;57.52
76605;BME280;65496;50.978;16.998;2022-12-17T05:18:05;100533.44;;;20.52;57.24
76605;BME280;65496;50.978;16.998;2022-12-17T05:20:50;100537.31;;;20.51;57.38
76605;BME280;65496;50.978;16.998;2022-12-17T05:23:34;100531.81;;;20.51;57.57
76605;BME280;65496;50.978;16.998;2022-12-17T05:26:21;100543.28;;;20.53;57.75
76605;BME280;65496;50.978;16.998;2022-12-17T05:29:07;100542.47;;;20.52;57.21
76605;BME280;65496;50.978;16.998;2022-12-17T05:31:52;100544.44;;;20.52;57.23
76605;BME280;65496;50.978;16.998;2022-12-17T05:34:36;100550.75;;;20.52;57.57
76605;BME280;65496;50.978;16.998;2022-12-17T05:37:21;100552.22;;;20.50;57.47
76605;BME280;65496;50.978;16.998;2022-12-17T05:40:07;100563.34;;;20.53;57.09
76605;BME280;65496;50.978;16.998;2022-12-17T05:42:59;100557.03;;;20.53;57.65
76605;BME280;65496;50.978;16.998;2022-12-17T05:45:45;100579.06;;;20.53;57.62
76605;BME280;65496;50.978;16.998;2022-12-17T05:48:31;100567.56;;;20.51;57.47
76605;BME280;65496;50.978;16.998;2022-12-17T05:51:15;100566.44;;;20.52;57.68
76605;BME280;65496;50.978;16.998;2022-12-17T05:54:00;100564.50;;;20.52;57.71
76605;BME280;65496;50.978;16.998;2022-12-17T05:56:45;100572.75;;;20.52;57.54
76605;BME280;65496;50.978;16.998;2022-12-17T05:59:30;100570.69;;;20.49;57.60
76605;BME280;65496;50.978;16.998;2022-12-17T06:02:15;100593.13;;;20.51;57.79
76605;BME280;65496;50.978;16.998;2022-12-17T06:04:59;100592.31;;;20.51;57.61
76605;BME280;65496;50.978;16.998;2022-12-17T06:07:44;100606.06;;;20.51;57.73
76605;BME280;65496;50.978;16.998;2022-12-17T06:10:37;100605.63;;;20.49;58.05
76605;BME280;65496;50.978;16.998;2022-12-17T06:13:21;100609.63;;;20.51;57.55
76605;BME280;65496;50.978;16.998;2022-12-17T06:16:06;100617.06;;;20.51;58.05
76605;BME280;65496;50.978;16.998;2022-12-17T06:18:50;100606.44;;;20.49;57.83
76605;BME280;65496;50.978;16.998;2022-12-17T06:21:35;100621.81;;;20.50;57.75
76605;BME280;65496;50.978;16.998;2022-12-17T06:24:19;100626.50;;;20.50;58.07
76605;BME280;65496;50.978;16.998;2022-12-17T06:27:04;100628.44;;;20.49;57.69
76605;BME280;65496;50.978;16.998;2022-12-17T06:29:48;100628.09;;;20.51;57.93
76605;BME280;65496;50.978;16.998;2022-12-17T06:32:44;100629.25;;;20.50;58.22
76605;BME280;65496;50.978;16.998;2022-12-17T06:35:28;100610.88;;;20.41;58.16
76605;BME280;65496;50.978;16.998;2022-12-17T06:38:21;100638.31;;;20.50;57.97
76605;BME280;65496;50.978;16.998;2022-12-17T06:41:05;100636.34;;;20.51;57.35
76605;BME280;65496;50.978;16.998;2022-12-17T06:43:50;100636.34;;;20.51;55.33
76605;BME280;65496;50.978;16.998;2022-12-17T06:46:35;100643.81;;;20.50;53.77
76605;BME280;65496;50.978;16.998;2022-12-17T06:49:19;100647.81;;;20.53;52.53
76605;BME280;65496;50.978;16.998;2022-12-17T06:52:04;100653.78;;;20.55;51.77
76605;BME280;65496;50.978;16.998;2022-12-17T06:54:56;100657.00;;;20.57;51.11
76605;BME280;65496;50.978;16.998;2022-12-17T06:57:40;100657.69;;;20.54;50.81
76605;BME280;65496;50.978;16.998;2022-12-17T07:00:25;100669.63;;;20.58;50.90
76605;BME280;65496;50.978;16.998;2022-12-17T07:03:10;100673.63;;;20.60;51.06
76605;BME280;65496;50.978;16.998;2022-12-17T07:05:55;100677.66;;;20.63;50.85
76605;BME280;65496;50.978;16.998;2022-12-17T07:08:39;100681.69;;;20.65;50.74
76605;BME280;65496;50.978;16.998;2022-12-17T07:11:24;100690.28;;;20.64;50.33
76605;BME280;65496;50.978;16.998;2022-12-17T07:14:09;100693.94;;;20.68;49.99
76605;BME280;65496;50.978;16.998;2022-12-17T07:16:53;100706.22;;;20.70;49.98
76605;BME280;65496;50.978;16.998;2022-12-17T07:19:38;100710.59;;;20.71;49.90
76605;BME280;65496;50.978;16.998;2022-12-17T07:22:22;100714.94;;;20.72;49.61
76605;BME280;65496;50.978;16.998;2022-12-17T07:25:07;100712.19;;;20.72;49.53
76605;BME280;65496;50.978;16.998;2022-12-17T07:27:53;100725.97;;;20.72;49.43
76605;BME280;65496;50.978;16.998;2022-12-17T07:30:38;100722.41;;;20.72;48.93
76605;BME280;65496;50.978;16.998;2022-12-17T07:33:22;100722.72;;;20.70;48.57
76605;BME280;65496;50.978;16.998;2022-12-17T07:36:07;100730.19;;;20.70;48.59
76605;BME280;65496;50.978;16.998;2022-12-17T07:38:52;100732.47;;;20.68;48.31
76605;BME280;65496;50.978;16.998;2022-12-17T07:41:36;100737.78;;;20.73;48.22
76605;BME280;65496;50.978;16.998;2022-12-17T07:44:21;100729.84;;;20.71;48.08
76605;BME280;65496;50.978;16.998;2022-12-17T07:47:05;100743.28;;;20.73;48.25
76605;BME280;65496;50.978;16.998;2022-12-17T07:49:50;100750.72;;;20.72;48.06
76605;BME280;65496;50.978;16.998;2022-12-17T07:52:35;100742.78;;;20.71;48.05
76605;BME280;65496;50.978;16.998;2022-12-17T07:55:19;100747.16;;;20.72;47.79
76605;BME280;65496;50.978;16.998;2022-12-17T07:58:07;100751.06;;;20.71;47.50
76605;BME280;65496;50.978;16.998;2022-12-17T08:00:53;100751.06;;;20.71;47.74
76605;BME280;65496;50.978;16.998;2022-12-17T08:03:37;100758.19;;;20.72;47.58
76605;BME280;65496;50.978;16.998;2022-12-17T08:06:22;100759.31;;;20.71;47.51
76605;BME280;65496;50.978;16.998;2022-12-17T08:09:06;100762.06;;;20.71;47.38
76605;BME280;65496;50.978;16.998;2022-12-17T08:11:51;100755.63;;;20.67;47.32
76605;BME280;65496;50.978;16.998;2022-12-17T08:14:35;100767.56;;;20.71;47.35
76605;BME280;65496;50.978;16.998;2022-12-17T08:17:20;100782.47;;;20.70;47.30
76605;BME280;65496;50.978;16.998;2022-12-17T08:20:05;100777.75;;;20.70;47.09
76605;BME280;65496;50.978;16.998;2022-12-17T08:22:49;100778.56;;;20.71;46.88
76605;BME280;65496;50.978;16.998;2022-12-17T08:25:34;100781.00;;;20.72;47.05
76605;BME280;65496;50.978;16.998;2022-12-17T08:28:19;100785.38;;;20.73;46.92
76605;BME280;65496;50.978;16.998;2022-12-17T08:31:03;100781.44;;;20.74;46.84
76605;BME280;65496;50.978;16.998;2022-12-17T08:33:56;100782.25;;;20.75;46.56
76605;BME280;65496;50.978;16.998;2022-12-17T08:36:40;100787.44;;;20.76;46.62
76605;BME280;65496;50.978;16.998;2022-12-17T08:39:25;100788.25;;;20.77;46.09
76605;BME280;65496;50.978;16.998;2022-12-17T08:42:10;100798.78;;;20.75;45.55
76605;BME280;65496;50.978;16.998;2022-12-17T08:44:54;100798.91;;;20.78;45.69
76605;BME280;65496;50.978;16.998;2022-12-17T08:47:39;100805.22;;;20.79;45.40
76605;BME280;65496;50.978;16.998;2022-12-17T08:50:23;100804.88;;;20.80;45.41
76605;BME280;65496;50.978;16.998;2022-12-17T08:53:08;100803.28;;;20.79;44.91
76605;BME280;65496;50.978;16.998;2022-12-17T08:55:53;100801.66;;;20.78;44.96
76605;BME280;65496;50.978;16.998;2022-12-17T08:58:37;100806.47;;;20.81;44.80
76605;BME280;65496;50.978;16.998;2022-12-17T09:01:22;100800.72;;;20.74;44.67
76605;BME280;65496;50.978;16.998;2022-12-17T09:04:06;100829.31;;;20.82;44.38
76605;BME280;65496;50.978;16.998;2022-12-17T09:06:51;100820.25;;;20.81;44.06
76605;BME280;65496;50.978;16.998;2022-12-17T09:09:35;100826.22;;;20.83;43.96
76605;BME280;65496;50.978;16.998;2022-12-17T09:12:20;100822.34;;;20.84;44.00
76605;BME280;65496;50.978;16.998;2022-12-17T09:15:05;100830.59;;;20.84;43.85
76605;BME280;65496;50.978;16.998;2022-12-17T09:17:50;100821.19;;;20.85;43.79
76605;BME280;65496;50.978;16.998;2022-12-17T09:20:35;100831.84;;;20.87;43.82
76605;BME280;65496;50.978;16.998;2022-12-17T09:23:20;100834.94;;;20.85;43.43
76605;BME280;65496;50.978;16.998;2022-12-17T09:26:05;100836.56;;;20.86;43.66
76605;BME280;65496;50.978;16.998;2022-12-17T09:28:50;100836.56;;;20.86;43.41
76605;BME280;65496;50.978;16.998;2022-12-17T09:31:35;100833.47;;;20.88;43.42
76605;BME280;65496;50.978;16.998;2022-12-17T09:34:19;100831.53;;;20.88;43.48
76605;BME280;65496;50.978;16.998;2022-12-17T09:37:04;100832.34;;;20.89;43.61
76605;BME280;65496;50.978;16.998;2022-12-17T09:39:49;100829.09;;;20.87;43.22
76605;BME280;65496;50.978;16.998;2022-12-17T09:42:44;100837.50;;;20.90;43.17
76605;BME280;65496;50.978;16.998;2022-12-17T09:45:59;100846.56;;;20.91;43.03
76605;BME280;65496;50.978;16.998;2022-12-17T09:48:59;100850.56;;;20.93;42.88
76605;BME280;65496;50.978;16.998;2022-12-17T09:51:45;100847.00;;;20.93;43.03
76605;BME280;65496;50.978;16.998;2022-12-17T09:54:37;100848.63;;;20.94;42.83
76605;BME280;65496;50.978;16.998;2022-12-17T09:57:27;100854.13;;;20.94;42.80
76605;BME280;65496;50.978;16.998;2022-12-17T10:00:21;100844.75;;;20.95;42.91
76605;BME280;65496;50.978;16.998;2022-12-17T10:03:14;100843.94;;;20.95;43.00
76605;BME280;65496;50.978;16.998;2022-12-17T10:06:07;100848.31;;;20.96;42.91
76605;BME280;65496;50.978;16.998;2022-12-17T10:08:57;100847.94;;;20.97;42.80
76605;BME280;65496;50.978;16.998;2022-12-17T10:11:42;100849.94;;;20.97;42.89
76605;BME280;65496;50.978;16.998;2022-12-17T10:14:27;100842.00;;;20.95;42.72
76605;BME280;65496;50.978;16.998;2022-12-17T10:17:20;100853.47;;;20.97;42.66
76605;BME280;65496;50.978;16.998;2022-12-17T10:20:24;100861.72;;;20.97;42.78
76605;BME280;65496;50.978;16.998;2022-12-17T10:23:24;100860.59;;;20.98;42.80
76605;BME280;65496;50.978;16.998;2022-12-17T10:26:15;100854.28;;;20.98;42.87
76605;BME280;65496;50.978;16.998;2022-12-17T10:29:32;100868.53;;;21.00;42.95
76605;BME280;65496;50.978;16.998;2022-12-17T10:32:22;100874.03;;;21.00;42.85
76605;BME280;65496;50.978;16.998;2022-12-17T10:35:07;100885.84;;;21.00;42.73
76605;BME280;65496;50.978;16.998;2022-12-17T10:37:52;100887.78;;;21.00;42.76
76605;BME280;65496;50.978;16.998;2022-12-17T10:40:37;100886.84;;;20.96;42.70
76605;BME280;65496;50.978;16.998;2022-12-17T10:43:32;100894.09;;;21.00;42.68
76605;BME280;65496;50.978;16.998;2022-12-17T10:46:28;100896.38;;;20.98;42.76
76605;BME280;65496;50.978;16.998;2022-12-17T10:49:18;100896.06;;;21.00;42.83
76605;BME280;65496;50.978;16.998;2022-12-17T10:52:29;100905.13;;;21.00;42.53
76605;BME280;65496;50.978;16.998;2022-12-17T10:55:24;100897.66;;;21.01;42.72
76605;BME280;65496;50.978;16.998;2022-12-17T10:58:14;100903.16;;;21.01;42.56
76605;BME280;65496;50.978;16.998;2022-12-17T11:01:03;100897.66;;;21.01;42.69
76605;BME280;65496;50.978;16.998;2022-12-17T11:06:43;100902.00;;;21.02;42.59
76605;BME280;65496;50.978;16.998;2022-12-17T11:09:50;100903.94;;;21.01;42.50
76605;BME280;65496;50.978;16.998;2022-12-17T11:12:44;100903.00;;;20.97;42.40
76605;BME280;65496;50.978;16.998;2022-12-17T11:15:35;100919.69;;;21.01;42.58
76605;BME280;65496;50.978;16.998;2022-12-17T11:18:47;100912.56;;;21.00;42.48
76605;BME280;65496;50.978;16.998;2022-12-17T11:21:50;100919.69;;;21.01;42.72
76605;BME280;65496;50.978;16.998;2022-12-17T11:24:43;100929.91;;;21.00;42.57
76605;BME280;65496;50.978;16.998;2022-12-17T11:27:33;100930.69;;;21.01;42.55
76605;BME280;65496;50.978;16.998;2022-12-17T11:30:21;100927.94;;;21.01;42.69
76605;BME280;65496;50.978;16.998;2022-12-17T11:33:55;100928.72;;;21.01;42.53
76605;BME280;65496;50.978;16.998;2022-12-17T11:36:39;100930.69;;;21.01;42.62
76605;BME280;65496;50.978;16.998;2022-12-17T11:39:44;100937.00;;;21.01;42.56
76605;BME280;65496;50.978;16.998;2022-12-17T11:42:39;100941.72;;;21.01;42.50
76605;BME280;65496;50.978;16.998;2022-12-17T11:45:32;100947.53;;;20.99;42.48
76605;BME280;65496;50.978;16.998;2022-12-17T11:48:36;100952.72;;;21.01;42.34
76605;BME280;65496;50.978;16.998;2022-12-17T11:52:08;100961.78;;;21.01;42.30
76605;BME280;65496;50.978;16.998;2022-12-17T11:58:17;100958.22;;;21.01;42.35
76605;BME280;65496;50.978;16.998;2022-12-17T12:07:20;100960.63;;;21.02;42.34
76605;BME280;65496;50.978;16.998;2022-12-17T12:10:24;100969.72;;;21.03;42.20
76605;BME280;65496;50.978;16.998;2022-12-17T12:20:05;100966.13;;;21.02;41.70
76605;BME280;65496;50.978;16.998;2022-12-17T12:26:16;100975.22;;;21.03;41.59
76605;BME280;65496;50.978;16.998;2022-12-17T12:29:40;100973.13;;;21.00;41.41
76605;BME280;65496;50.978;16.998;2022-12-17T12:32:43;100976.03;;;21.03;41.39
76605;BME280;65496;50.978;16.998;2022-12-17T12:35:31;100984.28;;;21.03;41.39
76605;BME280;65496;50.978;16.998;2022-12-17T12:38:23;100984.28;;;21.03;41.40
76605;BME280;65496;50.978;16.998;2022-12-17T12:41:32;100988.66;;;21.04;41.24
76605;BME280;65496;50.978;16.998;2022-12-17T12:47:19;100996.09;;;21.04;41.34
76605;BME280;65496;50.978;16.998;2022-12-17T12:50:33;101003.19;;;21.05;41.23
76605;BME280;65496;50.978;16.998;2022-12-17T12:53:22;101004.38;;;21.04;41.34
76605;BME280;65496;50.978;16.998;2022-12-17T12:56:34;101005.97;;;21.05;41.19
76605;BME280;65496;50.978;16.998;2022-12-17T12:59:29;101004.81;;;21.06;41.23
76605;BME280;65496;50.978;16.998;2022-12-17T13:02:33;101013.44;;;21.04;41.17
76605;BME280;65496;50.978;16.998;2022-12-17T13:05:38;101018.59;;;21.06;41.07
76605;BME280;65496;50.978;16.998;2022-12-17T13:10:36;101022.47;;;21.05;41.10
76605;BME280;65496;50.978;16.998;2022-12-17T13:15:42;101022.47;;;21.05;41.00
76605;BME280;65496;50.978;16.998;2022-12-17T13:18:30;101026.84;;;21.06;41.07
76605;BME280;65496;50.978;16.998;2022-12-17T13:21:03;101037.88;;;21.06;41.33
76605;BME280;65496;50.978;16.998;2022-12-17T13:23:35;101032.34;;;21.06;41.00
76605;BME280;65496;50.978;16.998;2022-12-17T13:29:22;101043.38;;;21.06;41.13
76605;BME280;65496;50.978;16.998;2022-12-17T13:37:28;101049.69;;;21.06;41.18
76605;BME280;65496;50.978;16.998;2022-12-17T13:42:34;101061.84;;;21.05;41.17
76605;BME280;65496;50.978;16.998;2022-12-17T13:45:01;101061.38;;;21.03;41.09
76605;BME280;65496;50.978;16.998;2022-12-17T13:47:30;101066.22;;;21.06;40.66
76605;BME280;65496;50.978;16.998;2022-12-17T13:49:59;101063.47;;;21.06;41.22
76605;BME280;65496;50.978;16.998;2022-12-17T13:52:27;101061.38;;;21.03;40.99
76605;BME280;65496;50.978;16.998;2022-12-17T13:55:08;101072.84;;;21.05;40.98
76605;BME280;65496;50.978;16.998;2022-12-17T13:57:36;101071.25;;;21.04;40.82
76605;BME280;65496;50.978;16.998;2022-12-17T14:00:03;101073.66;;;21.06;41.02
76605;BME280;65496;50.978;16.998;2022-12-17T14:02:32;101074.00;;;21.04;41.18
76605;BME280;65496;50.978;16.998;2022-12-17T14:05:00;101071.56;;;21.03;40.97
76605;BME280;65496;50.978;16.998;2022-12-17T14:07:27;101073.88;;;21.01;41.16
76605;BME280;65496;50.978;16.998;2022-12-17T14:09:54;101081.78;;;21.02;41.03
76605;BME280;65496;50.978;16.998;2022-12-17T14:12:24;101090.53;;;21.04;40.94
76605;BME280;65496;50.978;16.998;2022-12-17T14:14:57;101098.78;;;21.04;40.99
76605;BME280;65496;50.978;16.998;2022-12-17T14:17:26;101103.50;;;21.04;40.96
76605;BME280;65496;50.978;16.998;2022-12-17T14:22:37;101108.66;;;21.05;40.91
76605;BME280;65496;50.978;16.998;2022-12-17T14:25:16;101118.06;;;21.04;40.91
76605;BME280;65496;50.978;16.998;2022-12-17T14:27:57;101118.06;;;21.04;40.72
76605;BME280;65496;50.978;16.998;2022-12-17T14:30:41;101120.81;;;21.04;40.73
76605;BME280;65496;50.978;16.998;2022-12-17T14:33:30;101115.31;;;21.04;40.95
76605;BME280;65496;50.978;16.998;2022-12-17T14:36:27;101127.09;;;21.05;40.83
76605;BME280;65496;50.978;16.998;2022-12-17T14:38:59;101133.41;;;21.05;40.74
76605;BME280;65496;50.978;16.998;2022-12-17T14:41:26;101129.44;;;20.94;40.75
76605;BME280;65496;50.978;16.998;2022-12-17T14:44:19;101148.81;;;21.06;40.69
76605;BME280;65496;50.978;16.998;2022-12-17T14:46:47;101143.63;;;21.05;40.52
76605;BME280;65496;50.978;16.998;2022-12-17T14:49:18;101154.31;;;21.06;40.43
76605;BME280;65496;50.978;16.998;2022-12-17T14:51:47;101153.84;;;21.04;40.64
76605;BME280;65496;50.978;16.998;2022-12-17T14:56:52;101167.78;;;21.08;40.61
76605;BME280;65496;50.978;16.998;2022-12-17T14:59:35;101165.00;;;21.08;40.73
76605;BME280;65496;50.978;16.998;2022-12-17T15:04:37;101167.63;;;21.04;40.71
76605;BME280;65496;50.978;16.998;2022-12-17T15:07:05;101175.69;;;21.09;40.96
76605;BME280;65496;50.978;16.998;2022-12-17T15:09:35;101180.38;;;21.09;40.96
76605;BME280;65496;50.978;16.998;2022-12-17T15:12:02;101183.94;;;21.09;40.66
76605;BME280;65496;50.978;16.998;2022-12-17T15:14:28;101181.19;;;21.09;40.80
76605;BME280;65496;50.978;16.998;2022-12-17T15:16:54;101194.63;;;21.11;40.78
76605;BME280;65496;50.978;16.998;2022-12-17T15:19:21;101193.00;;;21.10;40.62
76605;BME280;65496;50.978;16.998;2022-12-17T15:21:47;101199.34;;;21.10;40.54